Strona główna
METAR-TAF:

METAR-TAF

Lotnisko :

Port lotniczy Londyn-Southend

Londyn-Southend, Anglia

Szerokość geograficzna: 51-34N, Długość geograficzna: 000-42E, wysokość: 15 m

Aktualna obserwacja pogody

Raport powstał 19 minut temu, godzina 09:20 UTC
Wiatr 8 kt od południowy zachód
Temperatura 19°C
Wilgotność 68%
Ciśnienie 1020 hPa
Widzialność 10 km lub więcej
Brak chmur poniżej 1500 m i brak chmur cumulonimbus

METAR: EGMC 210920Z 23008KT CAVOK 19/13 Q1020

czas: 10:39 (09:39 UTC)

Prognoza

Raport powstał 1 godzina i 37 minut temu, godzina 08:02 UTC
Prognoza ważna od 21 godzina 09 UTC do 21 godzina 18 UTC
Wiatr 8 kt od zachodnio-południowy zachód
Widzialność 10 km lub więcej
Mało chmury na wysokości 4000 ft

TAF: EGMC 210802Z 2109/2118 24008KT 9999 FEW040

Obserwacja i prognoza pogody dla ponad 4000 lotnisk (raport METAR i TAF).

Dostępne stacje oznaczono żółtymi i czerwonymi punktami na mapie.

Najedź kursorem aby zobaczyć nazwę stacji.

Kliknij aby zobaczyć obserwacje i prognozy pogody.

Aby zmienić mapę: kliknij na zielony przycisk z czarnym krzyżykiem, aby powiększyć; na zielony przycisk z myślnikiem, aby pomniejszyć; na zielone strzałki, aby przejść do map sąsiednich.


METAR-TAF: